Terminal Aerodrome Forecast
Issued by NWS Bismarck, ND

Home | Current Version | Previous Version | Text Only | Print | Product List | Glossary Off
Versions: 1 2 3 4 5 6 7 8 9 10 11 12 13 14 15 16 17

000
FTUS43 KBIS 152300
TAFISN
TAF
KISN 152338Z 1600/1624 09020KT P6SM OVC070
     FM160900 05011KT P6SM VCSH OVC025
     FM161900 08014KT P6SM BKN050=

USA.gov is the U.S. government's official web portal to all federal, state and local government web resources and services.